sensor_id;sensor_type;location;lat;lon;timestamp;pressure;altitude;pressure_sealevel;temperature;humidity
61757;BME280;57225;61.460;24.060;2022-12-24T00:02:08;98458.00;;;-5.93;100.00
61757;BME280;57225;61.460;24.060;2022-12-24T00:04:53;98469.22;;;-5.95;100.00
61757;BME280;57225;61.460;24.060;2022-12-24T00:07:37;98467.94;;;-5.97;100.00
61757;BME280;57225;61.460;24.060;2022-12-24T00:10:21;98468.41;;;-5.83;100.00
61757;BME280;57225;61.460;24.060;2022-12-24T00:13:06;98472.13;;;-5.88;100.00
61757;BME280;57225;61.460;24.060;2022-12-24T00:15:51;98475.44;;;-5.94;100.00
61757;BME280;57225;61.460;24.060;2022-12-24T00:18:35;98470.78;;;-5.94;100.00
61757;BME280;57225;61.460;24.060;2022-12-24T00:21:20;98460.03;;;-6.02;100.00
61757;BME280;57225;61.460;24.060;2022-12-24T00:24:04;98462.63;;;-5.94;100.00
61757;BME280;57225;61.460;24.060;2022-12-24T00:26:48;98474.75;;;-5.91;100.00
61757;BME280;57225;61.460;24.060;2022-12-24T00:29:33;98467.94;;;-5.97;100.00
61757;BME280;57225;61.460;24.060;2022-12-24T00:32:17;98475.44;;;-5.94;100.00
61757;BME280;57225;61.460;24.060;2022-12-24T00:35:02;98463.00;;;-5.95;100.00
61757;BME280;57225;61.460;24.060;2022-12-24T00:37:47;98461.06;;;-5.95;100.00
61757;BME280;57225;61.460;24.060;2022-12-24T00:40:32;98469.66;;;-5.93;100.00
61757;BME280;57225;61.460;24.060;2022-12-24T00:43:17;98466.34;;;-5.98;100.00
61757;BME280;57225;61.460;24.060;2022-12-24T00:46:01;98479.25;;;-5.83;100.00
61757;BME280;57225;61.460;24.060;2022-12-24T00:48:47;98485.81;;;-5.96;100.00
61757;BME280;57225;61.460;24.060;2022-12-24T00:51:32;98497.34;;;-5.87;100.00
61757;BME280;57225;61.460;24.060;2022-12-24T00:54:16;98490.91;;;-5.95;100.00
61757;BME280;57225;61.460;24.060;2022-12-24T00:57:01;98501.22;;;-5.88;100.00
61757;BME280;57225;61.460;24.060;2022-12-24T00:59:45;98503.53;;;-5.99;100.00
61757;BME280;57225;61.460;24.060;2022-12-24T01:02:30;98494.81;;;-6.04;100.00
61757;BME280;57225;61.460;24.060;2022-12-24T01:05:14;98500.69;;;-6.02;100.00
61757;BME280;57225;61.460;24.060;2022-12-24T01:07:59;98506.16;;;-5.90;100.00
61757;BME280;57225;61.460;24.060;2022-12-24T01:10:43;98492.31;;;-6.10;100.00
61757;BME280;57225;61.460;24.060;2022-12-24T01:13:28;98514.25;;;-6.02;100.00
61757;BME280;57225;61.460;24.060;2022-12-24T01:16:18;98509.75;;;-5.98;100.00
61757;BME280;57225;61.460;24.060;2022-12-24T01:19:03;98509.75;;;-5.98;100.00
61757;BME280;57225;61.460;24.060;2022-12-24T01:21:48;98509.75;;;-5.86;100.00
61757;BME280;57225;61.460;24.060;2022-12-24T01:24:32;98522.75;;;-5.80;100.00
61757;BME280;57225;61.460;24.060;2022-12-24T01:27:17;98515.53;;;-5.88;100.00
61757;BME280;57225;61.460;24.060;2022-12-24T01:30:01;98519.47;;;-5.85;100.00
61757;BME280;57225;61.460;24.060;2022-12-24T01:32:46;98519.25;;;-5.92;100.00
61757;BME280;57225;61.460;24.060;2022-12-24T01:35:30;98519.25;;;-5.92;100.00
61757;BME280;57225;61.460;24.060;2022-12-24T01:38:15;98523.63;;;-6.00;100.00
61757;BME280;57225;61.460;24.060;2022-12-24T01:40:59;98527.34;;;-6.04;100.00
61757;BME280;57225;61.460;24.060;2022-12-24T01:47:11;98527.13;;;-5.99;100.00
61757;BME280;57225;61.460;24.060;2022-12-24T01:49:59;98531.56;;;-5.95;100.00
61757;BME280;57225;61.460;24.060;2022-12-24T01:52:44;98543.88;;;-5.97;100.00
61757;BME280;57225;61.460;24.060;2022-12-24T01:55:29;98545.81;;;-5.86;100.00
61757;BME280;57225;61.460;24.060;2022-12-24T01:58:15;98539.09;;;-6.00;100.00
61757;BME280;57225;61.460;24.060;2022-12-24T02:01:01;98546.59;;;-5.97;100.00
61757;BME280;57225;61.460;24.060;2022-12-24T02:03:45;98556.53;;;-6.01;100.00
61757;BME280;57225;61.460;24.060;2022-12-24T02:06:30;98550.50;;;-6.07;100.00
61757;BME280;57225;61.460;24.060;2022-12-24T02:09:14;98552.59;;;-6.13;100.00
61757;BME280;57225;61.460;24.060;2022-12-24T02:11:59;98556.91;;;-6.12;100.00
61757;BME280;57225;61.460;24.060;2022-12-24T02:14:44;98556.91;;;-6.12;100.00
61757;BME280;57225;61.460;24.060;2022-12-24T02:17:42;98565.44;;;-6.22;100.00
61757;BME280;57225;61.460;24.060;2022-12-24T02:23:32;98572.19;;;-6.07;100.00
61757;BME280;57225;61.460;24.060;2022-12-24T02:26:36;98572.97;;;-6.06;100.00
61757;BME280;57225;61.460;24.060;2022-12-24T02:33:17;98581.56;;;-6.04;100.00
61757;BME280;57225;61.460;24.060;2022-12-24T02:36:22;98584.22;;;-5.96;100.00
61757;BME280;57225;61.460;24.060;2022-12-24T02:39:11;98582.56;;;-5.88;100.00
61757;BME280;57225;61.460;24.060;2022-12-24T02:41:57;98592.16;;;-5.79;100.00
61757;BME280;57225;61.460;24.060;2022-12-24T02:44:57;98593.63;;;-5.81;100.00
61757;BME280;57225;61.460;24.060;2022-12-24T02:47:44;98588.88;;;-5.84;100.00
61757;BME280;57225;61.460;24.060;2022-12-24T02:50:29;98590.31;;;-5.87;100.00
61757;BME280;57225;61.460;24.060;2022-12-24T02:53:14;98591.56;;;-5.96;100.00
61757;BME280;57225;61.460;24.060;2022-12-24T02:56:11;98597.78;;;-5.96;100.00
61757;BME280;57225;61.460;24.060;2022-12-24T02:59:15;98608.03;;;-6.01;100.00
61757;BME280;57225;61.460;24.060;2022-12-24T03:05:34;98609.47;;;-6.04;100.00
61757;BME280;57225;61.460;24.060;2022-12-24T03:08:56;98608.41;;;-6.12;100.00
61757;BME280;57225;61.460;24.060;2022-12-24T03:11:49;98606.38;;;-6.15;100.00
61757;BME280;57225;61.460;24.060;2022-12-24T03:14:39;98617.66;;;-6.13;100.00
61757;BME280;57225;61.460;24.060;2022-12-24T03:17:25;98615.44;;;-6.11;100.00
61757;BME280;57225;61.460;24.060;2022-12-24T03:20:10;98620.19;;;-6.07;100.00
61757;BME280;57225;61.460;24.060;2022-12-24T03:22:56;98620.91;;;-5.98;100.00
61757;BME280;57225;61.460;24.060;2022-12-24T03:25:42;98617.56;;;-5.95;100.00
61757;BME280;57225;61.460;24.060;2022-12-24T03:28:27;98626.63;;;-5.79;100.00
61757;BME280;57225;61.460;24.060;2022-12-24T03:31:13;98630.63;;;-5.77;100.00
61757;BME280;57225;61.460;24.060;2022-12-24T03:33:58;98638.47;;;-5.63;100.00
61757;BME280;57225;61.460;24.060;2022-12-24T03:36:42;98630.25;;;-5.54;100.00
61757;BME280;57225;61.460;24.060;2022-12-24T03:39:26;98640.56;;;-5.48;100.00
61757;BME280;57225;61.460;24.060;2022-12-24T03:42:11;98636.25;;;-5.49;100.00
61757;BME280;57225;61.460;24.060;2022-12-24T03:44:55;98634.88;;;-5.55;100.00
61757;BME280;57225;61.460;24.060;2022-12-24T03:47:40;98639.44;;;-5.47;100.00
61757;BME280;57225;61.460;24.060;2022-12-24T03:50:24;98636.72;;;-5.47;100.00
61757;BME280;57225;61.460;24.060;2022-12-24T03:53:11;98651.63;;;-5.53;100.00
61757;BME280;57225;61.460;24.060;2022-12-24T03:55:56;98650.56;;;-5.40;100.00
61757;BME280;57225;61.460;24.060;2022-12-24T03:58:40;98652.16;;;-5.39;100.00
61757;BME280;57225;61.460;24.060;2022-12-24T04:01:25;98656.88;;;-5.36;100.00
61757;BME280;57225;61.460;24.060;2022-12-24T04:04:09;98652.25;;;-5.35;100.00
61757;BME280;57225;61.460;24.060;2022-12-24T04:06:54;98648.97;;;-5.41;100.00
61757;BME280;57225;61.460;24.060;2022-12-24T04:09:38;98659.00;;;-5.20;100.00
61757;BME280;57225;61.460;24.060;2022-12-24T04:12:23;98655.00;;;-5.23;100.00
61757;BME280;57225;61.460;24.060;2022-12-24T04:15:09;98667.16;;;-5.08;100.00
61757;BME280;57225;61.460;24.060;2022-12-24T04:17:53;98671.81;;;-5.09;100.00
61757;BME280;57225;61.460;24.060;2022-12-24T04:20:54;98666.25;;;-5.12;100.00
61757;BME280;57225;61.460;24.060;2022-12-24T04:23:39;98676.34;;;-5.13;100.00
61757;BME280;57225;61.460;24.060;2022-12-24T04:26:24;98677.25;;;-5.09;100.00
61757;BME280;57225;61.460;24.060;2022-12-24T04:29:09;98670.91;;;-5.13;100.00
61757;BME280;57225;61.460;24.060;2022-12-24T04:31:53;98687.81;;;-4.95;100.00
61757;BME280;57225;61.460;24.060;2022-12-24T04:34:53;98676.69;;;-5.02;100.00
61757;BME280;57225;61.460;24.060;2022-12-24T04:37:40;98690.06;;;-4.97;100.00
61757;BME280;57225;61.460;24.060;2022-12-24T04:40:25;98704.22;;;-4.92;100.00
61757;BME280;57225;61.460;24.060;2022-12-24T04:43:09;98697.28;;;-5.01;100.00
61757;BME280;57225;61.460;24.060;2022-12-24T04:45:54;98702.94;;;-5.06;100.00
61757;BME280;57225;61.460;24.060;2022-12-24T04:48:38;98701.56;;;-5.12;100.00
61757;BME280;57225;61.460;24.060;2022-12-24T04:51:24;98693.63;;;-5.05;100.00
61757;BME280;57225;61.460;24.060;2022-12-24T04:54:08;98708.28;;;-4.98;100.00
61757;BME280;57225;61.460;24.060;2022-12-24T04:56:53;98711.66;;;-5.01;100.00
61757;BME280;57225;61.460;24.060;2022-12-24T04:59:37;98714.72;;;-5.02;100.00
61757;BME280;57225;61.460;24.060;2022-12-24T05:02:22;98727.44;;;-4.94;100.00
61757;BME280;57225;61.460;24.060;2022-12-24T05:05:06;98733.88;;;-4.87;100.00
61757;BME280;57225;61.460;24.060;2022-12-24T05:07:51;98731.53;;;-4.88;100.00
61757;BME280;57225;61.460;24.060;2022-12-24T05:10:37;98729.72;;;-4.84;100.00
61757;BME280;57225;61.460;24.060;2022-12-24T05:13:21;98729.50;;;-4.79;100.00
61757;BME280;57225;61.460;24.060;2022-12-24T05:16:06;98743.88;;;-4.78;100.00
61757;BME280;57225;61.460;24.060;2022-12-24T05:18:51;98728.84;;;-4.76;100.00
61757;BME280;57225;61.460;24.060;2022-12-24T05:21:36;98741.06;;;-4.70;100.00
61757;BME280;57225;61.460;24.060;2022-12-24T05:24:20;98738.22;;;-4.73;100.00
61757;BME280;57225;61.460;24.060;2022-12-24T05:27:23;98737.22;;;-4.69;100.00
61757;BME280;57225;61.460;24.060;2022-12-24T05:30:08;98751.28;;;-4.55;100.00
61757;BME280;57225;61.460;24.060;2022-12-24T05:32:52;98737.00;;;-4.64;100.00
61757;BME280;57225;61.460;24.060;2022-12-24T05:35:37;98741.56;;;-4.56;100.00
61757;BME280;57225;61.460;24.060;2022-12-24T05:38:22;98749.94;;;-4.49;100.00
61757;BME280;57225;61.460;24.060;2022-12-24T05:41:06;98736.81;;;-4.47;100.00
61757;BME280;57225;61.460;24.060;2022-12-24T05:43:52;98746.56;;;-4.46;100.00
61757;BME280;57225;61.460;24.060;2022-12-24T05:46:37;98749.94;;;-4.49;100.00
61757;BME280;57225;61.460;24.060;2022-12-24T05:49:22;98744.38;;;-4.52;100.00
61757;BME280;57225;61.460;24.060;2022-12-24T05:52:06;98766.72;;;-4.47;100.00
61757;BME280;57225;61.460;24.060;2022-12-24T05:54:50;98760.25;;;-4.42;100.00
61757;BME280;57225;61.460;24.060;2022-12-24T05:57:35;98775.66;;;-4.46;100.00
61757;BME280;57225;61.460;24.060;2022-12-24T06:00:19;98781.22;;;-4.42;100.00
61757;BME280;57225;61.460;24.060;2022-12-24T06:03:04;98773.63;;;-4.49;100.00
61757;BME280;57225;61.460;24.060;2022-12-24T06:06:05;98782.78;;;-4.41;100.00
61757;BME280;57225;61.460;24.060;2022-12-24T06:08:51;98791.53;;;-4.36;100.00
61757;BME280;57225;61.460;24.060;2022-12-24T06:11:36;98771.03;;;-4.46;100.00
61757;BME280;57225;61.460;24.060;2022-12-24T06:14:20;98779.78;;;-4.28;100.00
61757;BME280;57225;61.460;24.060;2022-12-24T06:17:05;98783.97;;;-4.30;100.00
61757;BME280;57225;61.460;24.060;2022-12-24T06:19:49;98780.56;;;-4.27;100.00
61757;BME280;57225;61.460;24.060;2022-12-24T06:22:34;98787.13;;;-4.28;100.00
61757;BME280;57225;61.460;24.060;2022-12-24T06:25:18;98796.66;;;-4.22;100.00
61757;BME280;57225;61.460;24.060;2022-12-24T06:28:03;98809.63;;;-4.07;100.00
61757;BME280;57225;61.460;24.060;2022-12-24T06:30:48;98804.16;;;-4.07;100.00
61757;BME280;57225;61.460;24.060;2022-12-24T06:33:34;98810.97;;;-4.01;100.00
61757;BME280;57225;61.460;24.060;2022-12-24T06:36:22;98834.09;;;-3.95;100.00
61757;BME280;57225;61.460;24.060;2022-12-24T06:54:46;98845.00;;;-3.58;100.00
61757;BME280;57225;61.460;24.060;2022-12-24T06:57:30;98846.59;;;-3.57;100.00
61757;BME280;57225;61.460;24.060;2022-12-24T07:00:18;98861.34;;;-3.46;100.00
61757;BME280;57225;61.460;24.060;2022-12-24T07:03:02;98859.75;;;-3.47;100.00
61757;BME280;57225;61.460;24.060;2022-12-24T07:05:47;98871.66;;;-3.40;100.00
61757;BME280;57225;61.460;24.060;2022-12-24T07:08:31;98876.78;;;-3.38;100.00
61757;BME280;57225;61.460;24.060;2022-12-24T07:11:19;98880.63;;;-3.27;100.00
61757;BME280;57225;61.460;24.060;2022-12-24T07:14:04;98874.94;;;-3.34;100.00
61757;BME280;57225;61.460;24.060;2022-12-24T07:16:48;98883.09;;;-3.22;100.00
61757;BME280;57225;61.460;24.060;2022-12-24T07:19:32;98888.78;;;-3.15;100.00
61757;BME280;57225;61.460;24.060;2022-12-24T07:22:19;98892.06;;;-3.09;100.00
61757;BME280;57225;61.460;24.060;2022-12-24T07:25:04;98875.63;;;-3.13;100.00
61757;BME280;57225;61.460;24.060;2022-12-24T07:27:49;98895.78;;;-3.02;100.00
61757;BME280;57225;61.460;24.060;2022-12-24T07:30:34;98879.94;;;-3.12;100.00
61757;BME280;57225;61.460;24.060;2022-12-24T07:33:19;98896.59;;;-3.01;100.00
61757;BME280;57225;61.460;24.060;2022-12-24T07:36:05;98914.53;;;-3.00;100.00
61757;BME280;57225;61.460;24.060;2022-12-24T07:38:50;98906.47;;;-2.97;100.00
61757;BME280;57225;61.460;24.060;2022-12-24T07:41:35;98905.09;;;-2.91;100.00
61757;BME280;57225;61.460;24.060;2022-12-24T07:44:20;98915.09;;;-2.95;100.00
61757;BME280;57225;61.460;24.060;2022-12-24T07:47:04;98921.69;;;-2.96;100.00
61757;BME280;57225;61.460;24.060;2022-12-24T07:49:50;98905.09;;;-2.91;100.00
61757;BME280;57225;61.460;24.060;2022-12-24T07:52:34;98927.53;;;-2.69;100.00
61757;BME280;57225;61.460;24.060;2022-12-24T07:55:19;98928.13;;;-2.76;100.00
61757;BME280;57225;61.460;24.060;2022-12-24T07:58:03;98933.78;;;-2.69;100.00
61757;BME280;57225;61.460;24.060;2022-12-24T08:00:48;98936.84;;;-2.70;100.00
61757;BME280;57225;61.460;24.060;2022-12-24T08:03:32;98949.81;;;-2.67;100.00
61757;BME280;57225;61.460;24.060;2022-12-24T08:06:17;98939.56;;;-2.70;100.00
61757;BME280;57225;61.460;24.060;2022-12-24T08:09:02;98946.38;;;-2.64;100.00
61757;BME280;57225;61.460;24.060;2022-12-24T08:11:47;98951.16;;;-2.61;100.00
61757;BME280;57225;61.460;24.060;2022-12-24T08:14:31;98952.75;;;-2.60;100.00
61757;BME280;57225;61.460;24.060;2022-12-24T08:17:16;98957.06;;;-2.59;100.00
61757;BME280;57225;61.460;24.060;2022-12-24T08:20:00;98955.13;;;-2.59;100.00
61757;BME280;57225;61.460;24.060;2022-12-24T08:22:47;98910.41;;;-2.82;100.00
61757;BME280;57225;61.460;24.060;2022-12-24T08:25:32;98955.91;;;-2.58;100.00
61757;BME280;57225;61.460;24.060;2022-12-24T08:28:19;98908.28;;;-2.89;100.00
61757;BME280;57225;61.460;24.060;2022-12-24T08:31:04;98971.34;;;-2.50;100.00
61757;BME280;57225;61.460;24.060;2022-12-24T08:33:49;98935.72;;;-2.69;100.00
61757;BME280;57225;61.460;24.060;2022-12-24T08:36:34;98986.09;;;-2.39;100.00
61757;BME280;57225;61.460;24.060;2022-12-24T08:39:19;98996.13;;;-2.43;100.00
61757;BME280;57225;61.460;24.060;2022-12-24T08:42:03;99002.47;;;-2.39;100.00
61757;BME280;57225;61.460;24.060;2022-12-24T08:44:48;98995.63;;;-2.33;100.00
61757;BME280;57225;61.460;24.060;2022-12-24T08:47:32;99011.19;;;-2.33;100.00
61757;BME280;57225;61.460;24.060;2022-12-24T08:50:17;99013.00;;;-2.25;100.00
61757;BME280;57225;61.460;24.060;2022-12-24T08:53:01;99011.31;;;-2.30;100.00
61757;BME280;57225;61.460;24.060;2022-12-24T08:55:45;99024.81;;;-2.21;100.00
61757;BME280;57225;61.460;24.060;2022-12-24T08:58:32;99020.56;;;-2.34;100.00
61757;BME280;57225;61.460;24.060;2022-12-24T09:01:18;99032.56;;;-2.23;100.00
61757;BME280;57225;61.460;24.060;2022-12-24T09:04:02;99012.13;;;-2.29;100.00
61757;BME280;57225;61.460;24.060;2022-12-24T09:06:47;99039.50;;;-2.26;100.00
61757;BME280;57225;61.460;24.060;2022-12-24T09:09:34;99016.66;;;-2.33;100.00
61757;BME280;57225;61.460;24.060;2022-12-24T09:12:22;99028.81;;;-2.19;100.00
61757;BME280;57225;61.460;24.060;2022-12-24T09:15:06;99026.88;;;-2.18;100.00
61757;BME280;57225;61.460;24.060;2022-12-24T09:17:54;99029.25;;;-2.17;100.00
61757;BME280;57225;61.460;24.060;2022-12-24T09:20:38;99024.47;;;-2.20;100.00
61757;BME280;57225;61.460;24.060;2022-12-24T09:23:23;99032.66;;;-2.20;100.00
61757;BME280;57225;61.460;24.060;2022-12-24T09:26:20;99025.06;;;-2.26;100.00
61757;BME280;57225;61.460;24.060;2022-12-24T09:29:04;99030.69;;;-2.07;100.00
61757;BME280;57225;61.460;24.060;2022-12-24T09:31:49;99031.34;;;-1.98;100.00
61757;BME280;57225;61.460;24.060;2022-12-24T09:34:34;99039.44;;;-2.02;100.00
61757;BME280;57225;61.460;24.060;2022-12-24T09:37:18;99034.56;;;-2.08;100.00
61757;BME280;57225;61.460;24.060;2022-12-24T09:40:03;99046.41;;;-2.04;100.00
61757;BME280;57225;61.460;24.060;2022-12-24T09:42:50;99057.06;;;-1.99;100.00
61757;BME280;57225;61.460;24.060;2022-12-24T09:45:37;99046.94;;;-1.98;100.00
61757;BME280;57225;61.460;24.060;2022-12-24T09:48:26;99065.91;;;-1.90;100.00
61757;BME280;57225;61.460;24.060;2022-12-24T09:51:39;99073.31;;;-1.90;100.00
61757;BME280;57225;61.460;24.060;2022-12-24T09:54:31;99072.41;;;-1.94;100.00
61757;BME280;57225;61.460;24.060;2022-12-24T09:57:24;99072.66;;;-1.99;100.00
61757;BME280;57225;61.460;24.060;2022-12-24T10:00:19;99069.88;;;-1.87;100.00
61757;BME280;57225;61.460;24.060;2022-12-24T10:03:13;99081.94;;;-1.88;100.00
61757;BME280;57225;61.460;24.060;2022-12-24T10:06:07;99092.97;;;-1.85;100.00
61757;BME280;57225;61.460;24.060;2022-12-24T10:09:12;99080.13;;;-1.84;100.00
61757;BME280;57225;61.460;24.060;2022-12-24T10:12:45;99091.25;;;-1.89;100.00
61757;BME280;57225;61.460;24.060;2022-12-24T10:15:38;99095.75;;;-1.97;100.00
61757;BME280;57225;61.460;24.060;2022-12-24T10:18:53;99101.84;;;-1.88;100.00
61757;BME280;57225;61.460;24.060;2022-12-24T10:21:59;99099.91;;;-1.87;100.00
61757;BME280;57225;61.460;24.060;2022-12-24T10:25:12;99111.50;;;-1.78;100.00
61757;BME280;57225;61.460;24.060;2022-12-24T10:28:01;99111.94;;;-1.76;100.00
61757;BME280;57225;61.460;24.060;2022-12-24T10:30:53;99092.97;;;-1.85;100.00
61757;BME280;57225;61.460;24.060;2022-12-24T10:33:46;99116.50;;;-1.80;100.00
61757;BME280;57225;61.460;24.060;2022-12-24T10:36:33;99113.31;;;-1.82;100.00
61757;BME280;57225;61.460;24.060;2022-12-24T10:39:21;99115.63;;;-1.84;100.00
61757;BME280;57225;61.460;24.060;2022-12-24T10:42:06;99121.28;;;-1.89;100.00
61757;BME280;57225;61.460;24.060;2022-12-24T10:44:56;99126.75;;;-1.77;100.00
61757;BME280;57225;61.460;24.060;2022-12-24T10:47:48;99125.84;;;-1.81;100.00
61757;BME280;57225;61.460;24.060;2022-12-24T10:50:56;99114.91;;;-1.81;100.00
61757;BME280;57225;61.460;24.060;2022-12-24T10:53:56;99135.84;;;-1.73;100.00
61757;BME280;57225;61.460;24.060;2022-12-24T10:56:47;99145.16;;;-1.74;100.00
61757;BME280;57225;61.460;24.060;2022-12-24T10:59:42;99150.38;;;-1.69;100.00
61757;BME280;57225;61.460;24.060;2022-12-24T11:02:35;99155.84;;;-1.69;100.00
61757;BME280;57225;61.460;24.060;2022-12-24T11:05:31;99169.97;;;-1.67;100.00
61757;BME280;57225;61.460;24.060;2022-12-24T11:08:17;99159.63;;;-1.74;100.00
61757;BME280;57225;61.460;24.060;2022-12-24T11:11:15;99171.44;;;-1.70;100.00
61757;BME280;57225;61.460;24.060;2022-12-24T11:14:00;99183.31;;;-1.78;100.00
61757;BME280;57225;61.460;24.060;2022-12-24T11:16:53;99175.91;;;-1.77;100.00
61757;BME280;57225;61.460;24.060;2022-12-24T11:19:38;99156.13;;;-1.86;100.00
61757;BME280;57225;61.460;24.060;2022-12-24T11:22:27;99177.47;;;-1.76;100.00
61757;BME280;57225;61.460;24.060;2022-12-24T11:25:21;99181.38;;;-1.77;100.00
61757;BME280;57225;61.460;24.060;2022-12-24T11:28:21;99194.00;;;-1.73;100.00
61757;BME280;57225;61.460;24.060;2022-12-24T11:31:18;99195.22;;;-1.82;100.00
61757;BME280;57225;61.460;24.060;2022-12-24T11:34:26;99197.16;;;-1.83;100.00
61757;BME280;57225;61.460;24.060;2022-12-24T11:40:01;99200.69;;;-1.82;100.00
61757;BME280;57225;61.460;24.060;2022-12-24T11:42:46;99202.28;;;-1.81;100.00
61757;BME280;57225;61.460;24.060;2022-12-24T11:45:36;99196.97;;;-1.90;100.00
61757;BME280;57225;61.460;24.060;2022-12-24T11:48:31;99198.91;;;-1.90;100.00
61757;BME280;57225;61.460;24.060;2022-12-24T11:51:26;99209.84;;;-1.90;100.00
61757;BME280;57225;61.460;24.060;2022-12-24T11:54:24;99212.75;;;-1.95;100.00
61757;BME280;57225;61.460;24.060;2022-12-24T11:57:10;99208.91;;;-1.94;100.00
61757;BME280;57225;61.460;24.060;2022-12-24T11:59:56;99212.44;;;-1.94;100.00
61757;BME280;57225;61.460;24.060;2022-12-24T12:02:42;99201.66;;;-2.03;100.00
61757;BME280;57225;61.460;24.060;2022-12-24T12:05:32;99223.91;;;-1.88;100.00
61757;BME280;57225;61.460;24.060;2022-12-24T12:08:20;99223.69;;;-1.95;100.00
61757;BME280;57225;61.460;24.060;2022-12-24T12:11:11;99232.34;;;-1.93;100.00
61757;BME280;57225;61.460;24.060;2022-12-24T12:13:59;99193.34;;;-2.18;100.00
61757;BME280;57225;61.460;24.060;2022-12-24T12:16:57;99209.81;;;-2.15;100.00
61757;BME280;57225;61.460;24.060;2022-12-24T12:20:10;99242.59;;;-1.90;100.00
61757;BME280;57225;61.460;24.060;2022-12-24T12:23:02;99236.09;;;-1.98;100.00
61757;BME280;57225;61.460;24.060;2022-12-24T12:26:00;99250.19;;;-1.96;100.00
61757;BME280;57225;61.460;24.060;2022-12-24T12:28:57;99244.84;;;-1.92;100.00
61757;BME280;57225;61.460;24.060;2022-12-24T12:31:54;99243.72;;;-2.04;100.00
61757;BME280;57225;61.460;24.060;2022-12-24T12:34:44;99249.41;;;-1.96;100.00
61757;BME280;57225;61.460;24.060;2022-12-24T12:37:39;99230.09;;;-2.04;100.00
61757;BME280;57225;61.460;24.060;2022-12-24T12:40:36;99237.56;;;-2.13;100.00
61757;BME280;57225;61.460;24.060;2022-12-24T12:46:58;99261.47;;;-1.97;100.00
61757;BME280;57225;61.460;24.060;2022-12-24T12:49:49;99261.47;;;-1.97;100.00
61757;BME280;57225;61.460;24.060;2022-12-24T12:55:47;99268.63;;;-2.05;100.00
61757;BME280;57225;61.460;24.060;2022-12-24T12:58:44;99271.34;;;-2.05;100.00
61757;BME280;57225;61.460;24.060;2022-12-24T13:08:42;99288.41;;;-2.08;100.00
61757;BME280;57225;61.460;24.060;2022-12-24T13:11:42;99271.22;;;-2.21;100.00
61757;BME280;57225;61.460;24.060;2022-12-24T13:14:50;99297.19;;;-2.03;100.00
61757;BME280;57225;61.460;24.060;2022-12-24T13:20:49;99290.78;;;-2.19;100.00
61757;BME280;57225;61.460;24.060;2022-12-24T13:23:34;99306.50;;;-2.16;100.00
61757;BME280;57225;61.460;24.060;2022-12-24T13:26:19;99294.88;;;-2.25;100.00
61757;BME280;57225;61.460;24.060;2022-12-24T13:29:29;99318.97;;;-2.15;100.00
61757;BME280;57225;61.460;24.060;2022-12-24T13:35:27;99325.25;;;-2.14;100.00
61757;BME280;57225;61.460;24.060;2022-12-24T13:38:39;99323.53;;;-2.19;100.00
61757;BME280;57225;61.460;24.060;2022-12-24T13:44:18;99333.56;;;-2.11;100.00
61757;BME280;57225;61.460;24.060;2022-12-24T13:49:57;99349.22;;;-2.20;100.00
61757;BME280;57225;61.460;24.060;2022-12-24T13:52:55;99339.00;;;-2.23;100.00
61757;BME280;57225;61.460;24.060;2022-12-24T13:58:55;99359.81;;;-2.18;100.00
61757;BME280;57225;61.460;24.060;2022-12-24T14:01:53;99354.44;;;-2.27;100.00
61757;BME280;57225;61.460;24.060;2022-12-24T14:04:39;99372.28;;;-2.29;100.00
61757;BME280;57225;61.460;24.060;2022-12-24T14:07:25;99362.28;;;-2.25;100.00
61757;BME280;57225;61.460;24.060;2022-12-24T14:10:22;99360.81;;;-2.23;100.00
61757;BME280;57225;61.460;24.060;2022-12-24T14:16:27;99375.63;;;-2.12;100.00
61757;BME280;57225;61.460;24.060;2022-12-24T14:19:17;99383.34;;;-2.14;100.00
61757;BME280;57225;61.460;24.060;2022-12-24T14:25:16;99387.94;;;-2.06;100.00
61757;BME280;57225;61.460;24.060;2022-12-24T14:28:10;99381.56;;;-2.10;100.00
61757;BME280;57225;61.460;24.060;2022-12-24T14:31:02;99387.13;;;-2.06;100.00
61757;BME280;57225;61.460;24.060;2022-12-24T14:33:47;99397.00;;;-2.14;100.00
61757;BME280;57225;61.460;24.060;2022-12-24T14:36:31;99397.22;;;-2.19;100.00
61757;BME280;57225;61.460;24.060;2022-12-24T14:48:44;99418.63;;;-2.09;100.00
61757;BME280;57225;61.460;24.060;2022-12-24T14:51:52;99414.94;;;-2.25;100.00
61757;BME280;57225;61.460;24.060;2022-12-24T14:54:41;99417.66;;;-2.25;100.00
61757;BME280;57225;61.460;24.060;2022-12-24T14:57:26;99416.78;;;-2.17;100.00
61757;BME280;57225;61.460;24.060;2022-12-24T15:00:20;99427.25;;;-2.19;100.00
61757;BME280;57225;61.460;24.060;2022-12-24T15:03:14;99430.44;;;-2.17;100.00
61757;BME280;57225;61.460;24.060;2022-12-24T15:06:02;99429.22;;;-2.07;100.00
61757;BME280;57225;61.460;24.060;2022-12-24T15:08:48;99435.22;;;-2.14;100.00
61757;BME280;57225;61.460;24.060;2022-12-24T15:11:33;99436.56;;;-2.20;100.00
61757;BME280;57225;61.460;24.060;2022-12-24T15:14:18;99446.13;;;-2.14;100.00
61757;BME280;57225;61.460;24.060;2022-12-24T15:17:05;99444.75;;;-2.20;100.00
61757;BME280;57225;61.460;24.060;2022-12-24T15:19:52;99447.34;;;-2.23;100.00
61757;BME280;57225;61.460;24.060;2022-12-24T15:22:36;99449.06;;;-2.19;100.00
61757;BME280;57225;61.460;24.060;2022-12-24T15:25:28;99458.53;;;-2.16;100.00
61757;BME280;57225;61.460;24.060;2022-12-24T15:28:17;99448.28;;;-2.19;100.00
61757;BME280;57225;61.460;24.060;2022-12-24T15:31:16;99451.31;;;-2.21;100.00
61757;BME280;57225;61.460;24.060;2022-12-24T15:34:02;99462.19;;;-2.12;100.00
61757;BME280;57225;61.460;24.060;2022-12-24T15:36:48;99465.72;;;-2.12;100.00
61757;BME280;57225;61.460;24.060;2022-12-24T15:39:32;99477.91;;;-2.09;100.00
61757;BME280;57225;61.460;24.060;2022-12-24T15:42:18;99466.50;;;-2.11;100.00
61757;BME280;57225;61.460;24.060;2022-12-24T15:45:18;99471.91;;;-2.23;100.00
61757;BME280;57225;61.460;24.060;2022-12-24T15:48:09;99451.75;;;-2.31;100.00